Portada
METAR-TAF:

METAR-TAF

Aeroports :

Khajuraho, Índia

latitud: 24-49-02N, longitud: 79-55-07E, altitud: 222 m

Observació

L'informe es va fer fa 2 hores i 20 minuts, a les 09:00 UTC
Vent 2 kt del Nord-Est
Temperatura 29°C
Humitat 40%
Pressió 1014 hPa
Visibilitat: 4000 m
Núvols disperses a una alçada de 10000 ft
calitja

METAR: VEKO 140900Z 05002KT 4000 HZ SCT100 29/14 Q1014

Hora: 16:50 (11:20 UTC)

Pronòstic

L'informe es va fer fa 3 hores i 20 minuts, a les 08:00 UTC
Pronòstic vàlid del 14 a les 09 UTC al 14 a les 18 UTC
Vent 8 kt del Est
Visibilitat: 4000 m
calitja

TAF: VEKO 140800Z 1409/1418 10008KT 4000 HZ NSC

Observacions i pronòstics meteorològics de més de 4000 aeroports (METAR i TAF).

Les estacions disponibles són els punts grocs i vermells al mapa.

Posi el ratolí al punt desitjat per veure el nom de l'estació.

Feu clic per veure les observacions i els pronòstics meteorològics.

Per canviar el mapa: feu clic els botons verds amb una creu de color negre per apropar; al botó verd amb un guió per allunyar la imatge; o en les fletxes verdes per a mapes adjacents.


METAR-TAF: